Terminal Aerodrome Forecast
Issued by NWS Central Illinois

Home | Current Version | Previous Version | Text Only | Print | Product List | Glossary On
Versions: 1 2 3 4 5 6 7 8 9 10 11 12 13 14 15 16 17 18 19 20 21 22 23 24 25 26 27 28 29
833
FTUS43 KILX 231138
TAFSPI
TAF
KSPI 231138Z 2312/2412 VRB03KT 1/4SM FG VV001
      TEMPO 2314/2315 1SM BR
     FM231500 05006KT P6SM SCT010
     FM231800 08010KT P6SM OVC015
     FM240100 12012KT P6SM BKN025
     FM240500 16011G20KT P6SM BKN035
     FM241100 18015KT P6SM BKN025=

USA.gov is the U.S. government's official web portal to all federal, state and local government web resources and services.